CheckWX is a tool to help pilots better visualize weather data.  It is not intended as a substitute for an official pre-flight weather briefing.

18:04:02 UTC

EIKN METAR
Ireland West Knock Airport
Charleston, Ireland
Current

34 mins ago

EIKN 241730Z 15007KT 100V190 5000 -RA SCT003 BKN010 OVC022 10/10 Q0987 TEMPO 1200 BKN002
Observed
Apr-24 @ 17:30 UTC
Wind
  • 150° at 7 KTS
Visibility
5,005 meters
Flight Rules
MVFR
Conditions
Light Rain
Cloud Levels
  • Scattered at 300' AGL
  • Broken at 1,000' AGL
  • Overcast at 2,200' AGL
Temperature
10°C / 50°F
Dewpoint
10°C / 50°F
Humidity
100%
Altimeter
29.14" Hg
Pressure
986.92 hPa
Previous

1 hour ago

EIKN 241700Z 14005KT 120V190 6000 -RA SCT004 BKN015 OVC025 10/10 Q0987 TEMPO 1200 BKN002
Observed
Apr-24 @ 17:00 UTC
Wind
  • 140° at 5 KTS
Visibility
6,003 meters
Flight Rules
MVFR
Conditions
Light Rain
Cloud Levels
  • Scattered at 400' AGL
  • Broken at 1,500' AGL
  • Overcast at 2,500' AGL
Temperature
10°C / 50°F
Dewpoint
10°C / 50°F
Humidity
100%
Altimeter
29.14" Hg
Pressure
986.92 hPa
Previous

2 hours ago

EIKN 241630Z 14008KT 110V190 4500 -RA BKN003 OVC018 11/10 Q0987 TEMPO 1200 BKN002
Observed
Apr-24 @ 16:30 UTC
Wind
  • 140° at 8 KTS
Visibility
4,506 meters
Flight Rules
LIFR
Conditions
Light Rain
Cloud Levels
  • Broken at 300' AGL
  • Overcast at 1,800' AGL
Temperature
11°C / 52°F
Dewpoint
10°C / 50°F
Humidity
94%
Altimeter
29.14" Hg
Pressure
986.92 hPa